Time;durP1;ratioP1;P1;durP2;ratioP2;P2;SDS_P1;SDS_P2;PMS_P1;PMS_P2;Temp;Humidity;BMP_temperature;BMP_pressure;BME280_temperature;BME280_humidity;BME280_pressure;Samples;Min_cycle;Max_cycle;Signal;HPM_P1;HPM_P2
2023/10/01 00:00:36;;;;;;;16.75;6.88;;;;;;;;;;4993628;28;20382;-71
2023/10/01 00:03:04;;;;;;;11.10;4.95;;;;;;;;;;4993434;28;20018;-71
2023/10/01 00:05:29;;;;;;;15.98;5.68;;;;;;;;;;4993310;28;20045;-71
2023/10/01 00:07:54;;;;;;;10.90;4.38;;;;;;;;;;4993209;28;20034;-71
2023/10/01 00:10:20;;;;;;;17.83;5.53;;;;;;;;;;4993150;28;20061;-71
2023/10/01 00:12:46;;;;;;;19.77;6.32;;;;;;;;;;4993441;28;20057;-71
2023/10/01 00:15:12;;;;;;;17.23;5.88;;;;;;;;;;4993225;28;20467;-71
2023/10/01 00:17:39;;;;;;;9.98;4.60;;;;;;;;;;4993547;28;20081;-71
2023/10/01 00:20:09;;;;;;;12.38;5.13;;;;;;;;;;4984029;28;20057;-71
2023/10/01 00:22:37;;;;;;;15.13;5.50;;;;;;;;;;4993468;28;20022;-71
2023/10/01 00:25:05;;;;;;;12.80;5.30;;;;;;;;;;4993332;28;20101;-71
2023/10/01 00:27:30;;;;;;;11.85;4.95;;;;;;;;;;4993602;28;20053;-71
2023/10/01 00:29:56;;;;;;;17.87;6.40;;;;;;;;;;4997001;28;20038;-71
2023/10/01 00:32:22;;;;;;;15.02;6.55;;;;;;;;;;4996788;28;20326;-72
2023/10/01 00:34:47;;;;;;;15.48;5.95;;;;;;;;;;4997057;28;20134;-71
2023/10/01 00:37:13;;;;;;;14.57;5.37;;;;;;;;;;4996677;28;20448;-70
2023/10/01 00:39:38;;;;;;;18.20;5.30;;;;;;;;;;4996927;28;20538;-71
2023/10/01 00:42:06;;;;;;;13.20;5.40;;;;;;;;;;4997025;28;20064;-71
2023/10/01 00:44:31;;;;;;;13.10;5.10;;;;;;;;;;4996462;28;20333;-71
2023/10/01 00:46:56;;;;;;;14.93;5.37;;;;;;;;;;4996793;28;20491;-71
2023/10/01 00:49:23;;;;;;;15.67;5.43;;;;;;;;;;4996571;28;20026;-71
2023/10/01 00:51:48;;;;;;;19.27;6.30;;;;;;;;;;4996261;28;20054;-71
2023/10/01 00:54:13;;;;;;;16.02;6.38;;;;;;;;;;4996461;28;20112;-71
2023/10/01 00:56:39;;;;;;;20.33;6.47;;;;;;;;;;4996484;28;20030;-71
2023/10/01 00:59:05;;;;;;;17.50;6.30;;;;;;;;;;4996583;28;20025;-72
2023/10/01 01:01:30;;;;;;;16.58;5.30;;;;;;;;;;4996488;28;20018;-71
2023/10/01 01:03:56;;;;;;;19.38;6.25;;;;;;;;;;4996460;28;20101;-71
2023/10/01 01:06:25;;;;;;;20.75;6.82;;;;;;;;;;4996228;28;20359;-71
2023/10/01 01:08:54;;;;;;;16.15;6.10;;;;;;;;;;4995806;28;20046;-71
2023/10/01 01:11:21;;;;;;;16.50;5.38;;;;;;;;;;4996522;28;20022;-71
2023/10/01 01:13:47;;;;;;;11.35;4.88;;;;;;;;;;4996233;28;20478;-71
2023/10/01 01:16:13;;;;;;;13.35;5.15;;;;;;;;;;4996054;28;20113;-71
2023/10/01 01:18:41;;;;;;;10.18;4.70;;;;;;;;;;4996354;28;20031;-71
2023/10/01 01:21:10;;;;;;;13.45;4.28;;;;;;;;;;4995897;28;20023;-71
2023/10/01 01:23:36;;;;;;;13.55;5.22;;;;;;;;;;4996293;28;20030;-71
2023/10/01 01:26:01;;;;;;;10.50;4.20;;;;;;;;;;4995794;28;20537;-71
2023/10/01 01:28:32;;;;;;;15.00;5.00;;;;;;;;;;4996007;28;20104;-71
2023/10/01 01:31:02;;;;;;;13.05;5.15;;;;;;;;;;4995965;28;20030;-71
2023/10/01 01:33:31;;;;;;;11.82;5.25;;;;;;;;;;4995510;28;20514;-71
2023/10/01 01:35:57;;;;;;;15.15;5.90;;;;;;;;;;4995808;28;20026;-71
2023/10/01 01:38:23;;;;;;;14.00;5.57;;;;;;;;;;4995485;28;20092;-71
2023/10/01 01:40:50;;;;;;;12.48;4.75;;;;;;;;;;4995565;28;20037;-71
2023/10/01 01:43:16;;;;;;;11.23;4.95;;;;;;;;;;4996031;28;20367;-71
2023/10/01 01:45:44;;;;;;;13.20;4.10;;;;;;;;;;4995991;28;20031;-71
2023/10/01 01:48:31;;;;;;;15.48;5.43;;;;;;;;;;4996168;28;20470;-71
2023/10/01 01:50:57;;;;;;;13.35;4.82;;;;;;;;;;4995482;28;20568;-71
2023/10/01 01:53:26;;;;;;;23.17;5.90;;;;;;;;;;4995849;28;20462;-71
2023/10/01 01:55:53;;;;;;;13.27;5.05;;;;;;;;;;4995294;28;20474;-71
2023/10/01 01:58:24;;;;;;;19.02;6.35;;;;;;;;;;4995716;28;20014;-71
2023/10/01 02:01:01;;;;;;;22.98;7.53;;;;;;;;;;4995694;28;20458;-71
2023/10/01 02:03:26;;;;;;;26.83;7.75;;;;;;;;;;4995911;28;20026;-71
2023/10/01 02:05:52;;;;;;;25.15;8.40;;;;;;;;;;4995639;28;20057;-72
2023/10/01 02:08:44;;;;;;;31.25;8.32;;;;;;;;;;4995455;28;20034;-71
2023/10/01 02:11:09;;;;;;;24.53;7.17;;;;;;;;;;4995410;28;20034;-71
2023/10/01 02:13:40;;;;;;;18.85;6.50;;;;;;;;;;4995468;28;20026;-71
2023/10/01 02:16:18;;;;;;;21.60;7.80;;;;;;;;;;4995314;28;20038;-71
2023/10/01 02:18:55;;;;;;;17.73;6.88;;;;;;;;;;4995624;28;20018;-71
2023/10/01 02:21:42;;;;;;;21.77;7.78;;;;;;;;;;4995911;28;20022;-65
2023/10/01 02:24:06;;;;;;;21.25;7.38;;;;;;;;;;4995127;28;20493;-65
2023/10/01 02:26:31;;;;;;;29.75;7.30;;;;;;;;;;4995195;28;20022;-65
2023/10/01 02:28:58;;;;;;;21.97;7.87;;;;;;;;;;4995239;28;20041;-65
2023/10/01 02:31:24;;;;;;;23.20;6.68;;;;;;;;;;4995228;28;20058;-65
2023/10/01 02:33:55;;;;;;;23.25;8.10;;;;;;;;;;4995286;28;20033;-65
2023/10/01 02:36:23;;;;;;;19.15;7.10;;;;;;;;;;4994974;28;20023;-65
2023/10/01 02:38:53;;;;;;;24.60;7.38;;;;;;;;;;4995233;28;20471;-65
2023/10/01 02:41:20;;;;;;;24.67;6.40;;;;;;;;;;4995175;28;20378;-65
2023/10/01 02:43:45;;;;;;;21.58;6.90;;;;;;;;;;4995133;28;20470;-65
2023/10/01 02:46:12;;;;;;;13.50;5.38;;;;;;;;;;4994792;28;20037;-65
2023/10/01 02:48:40;;;;;;;14.38;5.57;;;;;;;;;;4994716;28;20031;-65
2023/10/01 02:51:14;;;;;;;16.30;5.53;;;;;;;;;;4994472;28;20058;-65
2023/10/01 02:53:42;;;;;;;22.77;6.97;;;;;;;;;;4994741;28;20033;-65
2023/10/01 02:56:12;;;;;;;17.77;6.47;;;;;;;;;;4994834;28;20077;-65
2023/10/01 02:58:37;;;;;;;16.38;6.63;;;;;;;;;;4994862;28;20025;-65
2023/10/01 03:01:05;;;;;;;19.40;6.20;;;;;;;;;;4994628;28;20022;-65
2023/10/01 03:03:38;;;;;;;18.15;6.82;;;;;;;;;;4994767;28;20690;-65
2023/10/01 03:06:09;;;;;;;19.60;5.97;;;;;;;;;;4994423;28;20022;-65
2023/10/01 03:08:59;;;;;;;19.10;6.87;;;;;;;;;;4994284;28;20118;-65
2023/10/01 03:11:25;;;;;;;22.23;6.47;;;;;;;;;;4994718;28;20448;-65
2023/10/01 03:13:53;;;;;;;14.63;5.85;;;;;;;;;;4994300;28;20065;-65
2023/10/01 03:24:32;;;;;;;16.90;5.70;;;;;;;;;;4994185;28;20029;-66
2023/10/01 03:26:58;;;;;;;9.57;4.47;;;;;;;;;;4994417;28;20532;-65
2023/10/01 03:29:34;;;;;;;17.60;5.47;;;;;;;;;;4994540;28;20097;-71
2023/10/01 03:32:26;;;;;;;15.65;5.97;;;;;;;;;;4994125;28;20057;-71
2023/10/01 03:34:46;;;;;;;17.45;6.53;;;;;;;;;;4993870;28;20023;-71
2023/10/01 03:37:11;;;;;;;15.75;6.13;;;;;;;;;;4994047;28;20015;-71
2023/10/01 03:39:36;;;;;;;20.92;6.65;;;;;;;;;;4994289;28;20032;-71
2023/10/01 03:47:19;;;;;;;16.20;5.93;;;;;;;;;;4993912;28;20037;-71
2023/10/01 03:49:44;;;;;;;13.95;5.80;;;;;;;;;;4994222;28;20486;-71
2023/10/01 03:52:09;;;;;;;24.07;6.80;;;;;;;;;;4993877;28;20042;-71
2023/10/01 03:57:19;;;;;;;18.75;6.40;;;;;;;;;;4993857;28;20538;-71
2023/10/01 03:59:53;;;;;;;18.40;5.90;;;;;;;;;;4993831;28;20054;-71
2023/10/01 04:02:42;;;;;;;19.90;7.35;;;;;;;;;;4994090;28;20513;-72
2023/10/01 04:08:10;;;;;;;19.75;6.32;;;;;;;;;;4955835;29;20034;-71
2023/10/01 04:10:38;;;;;;;15.88;5.97;;;;;;;;;;4980898;28;20041;-71
2023/10/01 04:13:12;;;;;;;19.45;7.18;;;;;;;;;;4997596;28;20018;-71
2023/10/01 04:15:48;;;;;;;17.98;6.35;;;;;;;;;;4997442;28;20026;-71
2023/10/01 04:23:36;;;;;;;20.65;7.32;;;;;;;;;;4992322;28;20022;-71
2023/10/01 04:26:13;;;;;;;19.17;6.20;;;;;;;;;;4995881;28;20382;-72
2023/10/01 04:28:45;;;;;;;14.45;5.50;;;;;;;;;;4997273;28;20019;-71
2023/10/01 04:31:15;;;;;;;14.30;5.30;;;;;;;;;;4997145;28;20022;-71
2023/10/01 04:33:42;;;;;;;14.77;5.47;;;;;;;;;;4997068;28;20023;-71
2023/10/01 04:36:11;;;;;;;23.85;7.45;;;;;;;;;;4997476;28;20022;-67
2023/10/01 04:38:36;;;;;;;15.85;5.35;;;;;;;;;;4997472;28;20064;-67
2023/10/01 04:41:07;;;;;;;17.48;6.32;;;;;;;;;;4997382;28;20023;-67
2023/10/01 04:43:35;;;;;;;15.32;6.28;;;;;;;;;;4997315;28;20026;-67
2023/10/01 04:46:08;;;;;;;17.80;6.00;;;;;;;;;;4997197;28;20035;-67
2023/10/01 04:48:34;;;;;;;15.05;4.72;;;;;;;;;;4996936;28;20032;-67
2023/10/01 04:50:59;;;;;;;15.82;6.15;;;;;;;;;;4996965;28;20105;-67
2023/10/01 04:53:25;;;;;;;11.20;5.47;;;;;;;;;;4995538;28;20085;-67
2023/10/01 04:56:05;;;;;;;12.50;4.82;;;;;;;;;;4992420;28;20026;-67
2023/10/01 04:58:37;;;;;;;11.40;4.20;;;;;;;;;;4977494;28;20399;-66
2023/10/01 05:01:05;;;;;;;11.85;4.90;;;;;;;;;;4981376;28;20019;-67
2023/10/01 05:03:40;;;;;;;12.68;4.60;;;;;;;;;;4995491;28;20030;-67
2023/10/01 05:06:12;;;;;;;12.70;4.70;;;;;;;;;;4996421;28;20026;-67
2023/10/01 05:08:38;;;;;;;13.13;4.95;;;;;;;;;;4995377;28;20045;-67
2023/10/01 05:11:13;;;;;;;12.93;5.10;;;;;;;;;;4996371;28;20027;-67
2023/10/01 05:13:41;;;;;;;11.10;4.47;;;;;;;;;;4987970;28;20508;-67
2023/10/01 05:16:13;;;;;;;13.85;4.50;;;;;;;;;;4996001;28;20043;-67
2023/10/01 05:18:39;;;;;;;13.25;5.32;;;;;;;;;;4996147;28;20018;-67
2023/10/01 05:21:11;;;;;;;12.55;4.82;;;;;;;;;;4996703;28;20022;-67
2023/10/01 05:23:37;;;;;;;;;;;;;;;;;;4997054;28;20022;-67
2023/10/01 05:26:05;;;;;;;12.88;5.38;;;;;;;;;;4992081;28;20073;-67
2023/10/01 05:28:31;;;;;;;18.90;5.65;;;;;;;;;;4991612;28;20109;-67
2023/10/01 05:31:00;;;;;;;12.93;5.50;;;;;;;;;;4996362;28;20100;-67
2023/10/01 05:33:27;;;;;;;14.55;6.10;;;;;;;;;;4994399;28;20022;-67
2023/10/01 05:35:57;;;;;;;17.38;6.72;;;;;;;;;;4993452;28;20022;-67
2023/10/01 05:38:26;;;;;;;22.08;5.80;;;;;;;;;;4994772;28;20105;-67
2023/10/01 05:40:54;;;;;;;14.02;5.53;;;;;;;;;;4994706;28;20476;-67
2023/10/01 05:43:23;;;;;;;16.60;5.82;;;;;;;;;;4996303;28;20478;-67
2023/10/01 05:45:52;;;;;;;17.08;5.97;;;;;;;;;;4994678;28;20393;-67
2023/10/01 05:48:23;;;;;;;11.88;4.07;;;;;;;;;;4995936;28;20015;-67
2023/10/01 05:50:49;;;;;;;10.50;3.90;;;;;;;;;;4995984;28;20478;-67
2023/10/01 05:53:14;;;;;;;11.55;3.65;;;;;;;;;;4996099;28;20026;-67
2023/10/01 05:55:39;;;;;;;17.47;4.93;;;;;;;;;;4995715;28;20415;-67
2023/10/01 05:58:14;;;;;;;12.20;5.03;;;;;;;;;;4995734;28;20284;-67
2023/10/01 06:00:56;;;;;;;12.10;4.50;;;;;;;;;;4995728;28;20011;-67
2023/10/01 06:03:23;;;;;;;14.88;5.22;;;;;;;;;;4995928;28;20121;-67
2023/10/01 06:05:57;;;;;;;9.45;4.75;;;;;;;;;;4995835;28;20037;-67
2023/10/01 06:08:25;;;;;;;16.42;5.50;;;;;;;;;;4995438;28;20430;-67
2023/10/01 06:10:59;;;;;;;11.82;5.43;;;;;;;;;;4995527;28;20045;-66
2023/10/01 06:13:25;;;;;;;10.93;5.07;;;;;;;;;;4995746;28;20048;-67
2023/10/01 06:15:52;;;;;;;14.55;5.00;;;;;;;;;;4995360;28;20023;-67
2023/10/01 06:18:18;;;;;;;14.77;5.43;;;;;;;;;;4995593;28;20023;-67
2023/10/01 06:20:43;;;;;;;19.38;6.85;;;;;;;;;;4995359;28;20494;-66
2023/10/01 06:23:08;;;;;;;13.37;5.87;;;;;;;;;;4995249;28;20022;-66
2023/10/01 06:25:44;;;;;;;17.00;6.33;;;;;;;;;;4994407;28;20030;-67
2023/10/01 06:28:10;;;;;;;16.52;6.25;;;;;;;;;;4995243;28;20488;-66
2023/10/01 06:30:43;;;;;;;15.18;6.13;;;;;;;;;;4995453;28;20057;-66
2023/10/01 06:33:09;;;;;;;14.68;5.68;;;;;;;;;;4995367;28;20037;-66
2023/10/01 06:35:35;;;;;;;25.73;11.20;;;;;;;;;;4995056;28;20026;-66
2023/10/01 06:38:00;;;;;;;17.40;8.15;;;;;;;;;;4995264;28;20403;-66
2023/10/01 06:40:31;;;;;;;18.97;7.93;;;;;;;;;;4994999;28;20065;-66
2023/10/01 06:43:00;;;;;;;32.30;13.07;;;;;;;;;;4995211;28;20026;-66
2023/10/01 06:45:49;;;;;;;25.08;11.27;;;;;;;;;;4994991;28;20018;-66
2023/10/01 06:48:14;;;;;;;21.40;11.25;;;;;;;;;;4994417;28;20394;-66
2023/10/01 06:50:40;;;;;;;25.80;12.10;;;;;;;;;;4995062;28;20037;-66
2023/10/01 06:53:09;;;;;;;21.15;8.93;;;;;;;;;;4994749;28;20034;-66
2023/10/01 06:55:36;;;;;;;23.20;9.23;;;;;;;;;;4994791;28;20034;-66
2023/10/01 06:58:06;;;;;;;19.95;9.23;;;;;;;;;;4994902;28;20025;-66
2023/10/01 07:00:34;;;;;;;28.90;9.25;;;;;;;;;;4994714;28;20500;-66
2023/10/01 07:03:16;;;;;;;22.75;7.97;;;;;;;;;;4994897;28;20466;-66
2023/10/01 07:05:45;;;;;;;19.05;7.60;;;;;;;;;;4994823;28;20030;-66
2023/10/01 07:08:11;;;;;;;21.20;7.93;;;;;;;;;;4994350;28;20022;-67
2023/10/01 07:10:36;;;;;;;17.98;7.50;;;;;;;;;;4994407;28;20041;-66
2023/10/01 07:13:04;;;;;;;19.00;6.73;;;;;;;;;;4994423;28;20022;-66
2023/10/01 07:15:32;;;;;;;24.42;7.18;;;;;;;;;;4994531;28;20030;-66
2023/10/01 07:17:58;;;;;;;15.88;7.35;;;;;;;;;;4994348;28;20026;-66
2023/10/01 07:20:24;;;;;;;24.38;7.53;;;;;;;;;;4994577;28;20073;-66
2023/10/01 07:22:50;;;;;;;20.38;7.32;;;;;;;;;;4994235;28;20015;-67
2023/10/01 07:28:12;;;;;;;19.65;7.20;;;;;;;;;;4985522;28;20026;-66
2023/10/01 07:30:45;;;;;;;19.80;7.00;;;;;;;;;;4994336;28;20489;-66
2023/10/01 07:33:11;;;;;;;20.20;7.00;;;;;;;;;;4994032;28;20055;-67
2023/10/01 07:35:40;;;;;;;20.38;6.85;;;;;;;;;;4994278;28;20034;-66
2023/10/01 07:38:06;;;;;;;21.20;7.80;;;;;;;;;;4994101;28;20478;-67
2023/10/01 07:40:50;;;;;;;17.80;6.97;;;;;;;;;;4994252;28;20018;-66
2023/10/01 07:43:16;;;;;;;18.50;7.03;;;;;;;;;;4994234;28;20030;-67
2023/10/01 07:45:55;;;;;;;24.13;6.80;;;;;;;;;;4993915;28;20018;-66
2023/10/01 07:48:21;;;;;;;21.10;6.70;;;;;;;;;;4994209;28;20386;-67
2023/10/01 07:50:47;;;;;;;15.90;6.13;;;;;;;;;;4993828;28;20022;-66
2023/10/01 07:53:12;;;;;;;17.08;6.28;;;;;;;;;;4994124;28;20019;-67
2023/10/01 07:55:38;;;;;;;21.10;6.85;;;;;;;;;;4993966;28;20109;-67
2023/10/01 08:00:47;;;;;;;21.55;7.50;;;;;;;;;;4993784;28;20763;-66
2023/10/01 08:05:47;;;;;;;;;;;;;;;;;;4994526;28;20031;-66
2023/10/01 08:08:13;;;;;;;19.05;7.70;;;;;;;;;;4993878;28;19913;-67
2023/10/01 08:10:39;;;;;;;21.55;7.18;;;;;;;;;;4992580;28;20022;-66
2023/10/01 08:13:07;;;;;;;21.15;7.05;;;;;;;;;;4993789;28;20042;-67
2023/10/01 08:15:40;;;;;;;20.63;7.88;;;;;;;;;;4993571;28;20037;-67
2023/10/01 08:20:59;;;;;;;24.27;7.82;;;;;;;;;;4993900;28;20046;-67
2023/10/01 08:23:33;;;;;;;27.67;8.57;;;;;;;;;;4993942;28;20489;-67
2023/10/01 08:26:39;;;;;;;23.95;8.50;;;;;;;;;;4993725;28;20022;-67
2023/10/01 08:28:59;;;;;;;20.63;7.85;;;;;;;;;;4993509;28;20124;-67
2023/10/01 08:32:07;;;;;;;21.45;7.90;;;;;;;;;;4993840;28;20027;-67
2023/10/01 08:34:28;;;;;;;21.48;8.25;;;;;;;;;;4993434;28;20478;-67
2023/10/01 08:36:57;;;;;;;22.40;9.50;;;;;;;;;;4993458;28;20027;-67
2023/10/01 08:39:35;;;;;;;23.02;8.60;;;;;;;;;;4993532;28;20156;-67
2023/10/01 08:42:08;;;;;;;21.35;8.15;;;;;;;;;;4993727;28;20462;-67
2023/10/01 08:44:44;;;;;;;22.40;8.40;;;;;;;;;;4993711;28;20020;-67
2023/10/01 08:47:21;;;;;;;29.00;8.85;;;;;;;;;;4993656;28;20105;-67
2023/10/01 08:49:50;;;;;;;22.60;8.48;;;;;;;;;;4996124;28;20489;-67
2023/10/01 08:52:19;;;;;;;21.10;8.23;;;;;;;;;;4997293;28;20022;-67
2023/10/01 08:54:45;;;;;;;23.52;8.30;;;;;;;;;;4997149;28;20386;-67
2023/10/01 08:57:18;;;;;;;19.75;7.45;;;;;;;;;;4996813;28;20027;-67
2023/10/01 08:59:44;;;;;;;20.20;7.68;;;;;;;;;;4996859;28;20034;-67
2023/10/01 09:02:16;;;;;;;16.88;7.32;;;;;;;;;;4996801;28;20014;-67
2023/10/01 09:04:44;;;;;;;22.23;7.93;;;;;;;;;;4997038;28;20379;-67
2023/10/01 09:07:17;;;;;;;21.30;7.93;;;;;;;;;;4996743;28;20097;-67
2023/10/01 09:09:51;;;;;;;20.75;8.23;;;;;;;;;;4996634;28;20518;-67
2023/10/01 09:12:18;;;;;;;22.05;8.40;;;;;;;;;;4996692;28;20027;-67
2023/10/01 09:14:46;;;;;;;25.77;8.50;;;;;;;;;;4996601;28;20018;-67
2023/10/01 09:17:24;;;;;;;23.15;8.82;;;;;;;;;;4996697;28;20521;-67
2023/10/01 09:19:50;;;;;;;24.08;8.23;;;;;;;;;;4996828;28;20466;-68
2023/10/01 09:22:16;;;;;;;17.23;7.22;;;;;;;;;;4996722;28;20080;-68
2023/10/01 09:24:55;;;;;;;22.38;8.30;;;;;;;;;;4996367;28;20018;-68
2023/10/01 09:27:30;;;;;;;22.35;8.32;;;;;;;;;;4996369;28;20093;-68
2023/10/01 09:32:52;;;;;;;20.95;7.93;;;;;;;;;;4996284;28;20029;-68
2023/10/01 09:35:39;;;;;;;23.17;8.48;;;;;;;;;;4996135;28;20022;-68
2023/10/01 09:38:11;;;;;;;22.17;8.25;;;;;;;;;;4996151;28;20101;-68
2023/10/01 09:40:44;;;;;;;24.67;8.20;;;;;;;;;;4996391;28;20132;-68
2023/10/01 09:43:18;;;;;;;24.98;8.15;;;;;;;;;;4996023;28;20022;-68
2023/10/01 09:45:46;;;;;;;21.77;8.48;;;;;;;;;;4996093;28;20018;-68
2023/10/01 09:48:28;;;;;;;20.90;8.43;;;;;;;;;;4995972;28;20018;-68
2023/10/01 09:50:56;;;;;;;19.35;8.48;;;;;;;;;;4996204;28;20378;-68
2023/10/01 09:53:24;;;;;;;19.80;7.80;;;;;;;;;;4995888;28;20022;-68
2023/10/01 09:55:55;;;;;;;22.35;8.45;;;;;;;;;;4995929;28;20033;-68
2023/10/01 09:58:24;;;;;;;24.10;8.13;;;;;;;;;;4996087;28;20093;-68
2023/10/01 10:00:53;;;;;;;17.67;7.45;;;;;;;;;;4995662;28;20552;-68
2023/10/01 10:03:19;;;;;;;18.48;7.97;;;;;;;;;;4995696;28;20359;-68
2023/10/01 10:05:46;;;;;;;18.95;7.82;;;;;;;;;;4995691;28;20025;-68
2023/10/01 10:08:26;;;;;;;20.92;7.68;;;;;;;;;;4995421;28;20050;-68
2023/10/01 10:10:55;;;;;;;18.52;7.15;;;;;;;;;;4995849;28;20390;-68
2023/10/01 10:13:33;;;;;;;20.45;7.60;;;;;;;;;;4995486;28;20018;-68
2023/10/01 10:15:59;;;;;;;21.90;8.80;;;;;;;;;;4995456;28;20038;-68
2023/10/01 10:18:25;;;;;;;21.30;7.60;;;;;;;;;;4995379;28;20386;-68
2023/10/01 10:20:56;;;;;;;19.33;7.15;;;;;;;;;;4995641;28;20157;-68
2023/10/01 10:23:29;;;;;;;24.02;8.38;;;;;;;;;;4995323;28;20363;-68
2023/10/01 10:26:12;;;;;;;18.02;7.22;;;;;;;;;;4995229;28;20026;-68
2023/10/01 10:28:51;;;;;;;16.70;7.10;;;;;;;;;;4995471;28;20022;-68
2023/10/01 10:31:37;;;;;;;19.90;7.68;;;;;;;;;;4995559;28;20085;-67
2023/10/01 10:34:21;;;;;;;18.65;7.93;;;;;;;;;;4995076;28;20054;-67
2023/10/01 10:36:55;;;;;;;17.60;7.78;;;;;;;;;;4995236;28;20110;-67
2023/10/01 10:39:40;;;;;;;18.08;7.80;;;;;;;;;;4994981;28;20022;-67
2023/10/01 10:42:29;;;;;;;19.15;7.40;;;;;;;;;;4995226;28;20462;-67
2023/10/01 10:45:23;;;;;;;22.65;7.75;;;;;;;;;;4995171;28;20025;-67
2023/10/01 10:48:03;;;;;;;17.75;7.00;;;;;;;;;;4995100;28;20378;-67
2023/10/01 10:50:50;;;;;;;17.20;6.80;;;;;;;;;;4994768;28;20019;-67
2023/10/01 10:53:19;;;;;;;18.48;7.57;;;;;;;;;;4994816;28;20101;-67
2023/10/01 10:56:00;;;;;;;18.60;7.18;;;;;;;;;;4994835;28;20481;-67
2023/10/01 10:58:28;;;;;;;;;;;;;;;;;;4995029;28;20065;-67
2023/10/01 11:00:53;;;;;;;19.60;7.82;;;;;;;;;;4994873;28;20380;-68
2023/10/01 11:03:49;;;;;;;19.48;7.80;;;;;;;;;;4994592;28;20014;-68
2023/10/01 11:06:15;;;;;;;19.23;8.18;;;;;;;;;;4994550;28;20026;-68
2023/10/01 11:08:50;;;;;;;16.83;7.00;;;;;;;;;;4994305;28;20485;-67
2023/10/01 11:11:18;;;;;;;17.48;7.38;;;;;;;;;;4994275;28;20039;-67
2023/10/01 11:13:45;;;;;;;22.02;7.93;;;;;;;;;;4994361;28;20127;-68
2023/10/01 11:16:15;;;;;;;18.08;7.55;;;;;;;;;;4994539;28;20058;-67
2023/10/01 11:18:48;;;;;;;16.50;7.22;;;;;;;;;;4994584;28;20037;-68
2023/10/01 11:21:20;;;;;;;18.02;7.82;;;;;;;;;;4994491;28;20101;-68
2023/10/01 11:23:53;;;;;;;20.98;7.97;;;;;;;;;;4994280;28;20496;-68
2023/10/01 11:26:29;;;;;;;19.55;8.07;;;;;;;;;;4994477;28;20026;-68
2023/10/01 11:29:00;;;;;;;20.52;8.02;;;;;;;;;;4994440;28;20470;-68
2023/10/01 11:31:27;;;;;;;18.42;8.90;;;;;;;;;;4994508;28;20030;-68
2023/10/01 11:34:02;;;;;;;19.80;8.88;;;;;;;;;;4994453;28;20117;-68
2023/10/01 11:36:35;;;;;;;18.40;7.97;;;;;;;;;;4994284;28;20078;-68
2023/10/01 11:39:03;;;;;;;21.42;9.98;;;;;;;;;;4994305;28;20355;-68
2023/10/01 11:41:38;;;;;;;20.10;8.55;;;;;;;;;;4994073;28;20026;-68
2023/10/01 11:44:05;;;;;;;22.27;8.27;;;;;;;;;;4994113;28;20073;-68
2023/10/01 11:49:15;;;;;;;22.42;8.57;;;;;;;;;;4994219;28;20061;-67
2023/10/01 11:51:43;;;;;;;18.70;7.37;;;;;;;;;;4994007;28;20390;-68
2023/10/01 11:54:09;;;;;;;19.85;8.70;;;;;;;;;;4994042;28;20280;-68
2023/10/01 11:56:35;;;;;;;17.67;7.72;;;;;;;;;;4993777;28;20077;-67
2023/10/01 11:59:00;;;;;;;21.08;8.32;;;;;;;;;;4994120;28;20387;-67
2023/10/01 12:01:38;;;;;;;22.23;8.80;;;;;;;;;;4993790;28;20033;-67
2023/10/01 12:04:04;;;;;;;24.85;9.02;;;;;;;;;;4993802;28;20019;-67
2023/10/01 12:06:34;;;;;;;18.95;8.05;;;;;;;;;;4994052;28;20030;-67
2023/10/01 12:08:59;;;;;;;19.23;8.13;;;;;;;;;;4993791;28;20524;-67
2023/10/01 12:11:27;;;;;;;22.77;8.93;;;;;;;;;;4994024;28;20026;-67
2023/10/01 12:14:06;;;;;;;24.00;9.48;;;;;;;;;;4993790;28;20402;-67
2023/10/01 12:16:35;;;;;;;22.65;9.00;;;;;;;;;;4993734;28;20034;-67
2023/10/01 12:21:45;;;;;;;22.00;9.43;;;;;;;;;;4993696;28;20025;-68
2023/10/01 12:24:12;;;;;;;20.13;9.15;;;;;;;;;;4995500;28;20022;-67
2023/10/01 12:26:43;;;;;;;19.23;8.98;;;;;;;;;;4997534;28;20026;-67
2023/10/01 12:29:12;;;;;;;26.83;9.35;;;;;;;;;;4997375;28;20062;-67
2023/10/01 12:31:40;;;;;;;19.77;8.40;;;;;;;;;;4997461;28;20440;-68
2023/10/01 12:34:05;;;;;;;19.45;8.13;;;;;;;;;;4997332;28;20026;-67
2023/10/01 12:36:46;;;;;;;22.55;9.20;;;;;;;;;;4997305;28;20030;-67
2023/10/01 12:44:36;;;;;;;25.55;8.98;;;;;;;;;;4988499;28;20256;-67
2023/10/01 12:47:03;;;;;;;20.05;8.38;;;;;;;;;;4997372;28;20396;-67
2023/10/01 12:49:28;;;;;;;21.05;8.48;;;;;;;;;;4997264;28;20026;-67
2023/10/01 12:51:54;;;;;;;18.17;8.20;;;;;;;;;;4997325;28;20364;-67
2023/10/01 12:54:22;;;;;;;21.00;9.18;;;;;;;;;;4996864;28;20026;-67
2023/10/01 12:56:48;;;;;;;18.27;8.15;;;;;;;;;;4997076;28;20061;-68
2023/10/01 12:59:18;;;;;;;22.70;8.95;;;;;;;;;;4997137;28;20418;-67
2023/10/01 13:01:50;;;;;;;23.35;8.50;;;;;;;;;;4996876;28;20106;-67
2023/10/01 13:04:22;;;;;;;20.55;8.77;;;;;;;;;;4996816;28;20101;-67
2023/10/01 13:06:47;;;;;;;;;;;;;;;;;;4997457;28;20496;-67
2023/10/01 13:12:06;;;;;;;19.23;8.25;;;;;;;;;;4997011;28;20504;-67
2023/10/01 13:14:31;;;;;;;21.45;9.18;;;;;;;;;;4996632;28;20030;-68
2023/10/01 13:17:00;;;;;;;20.73;8.33;;;;;;;;;;4996517;28;20041;-67
2023/10/01 13:19:33;;;;;;;18.58;7.82;;;;;;;;;;4996537;28;20045;-68
2023/10/01 13:21:59;;;;;;;20.63;9.02;;;;;;;;;;4996745;28;20398;-68
2023/10/01 13:24:26;;;;;;;21.75;8.10;;;;;;;;;;4996672;28;20500;-67
2023/10/01 13:27:05;;;;;;;20.90;8.30;;;;;;;;;;4996344;28;20050;-67
2023/10/01 13:29:30;;;;;;;19.60;8.30;;;;;;;;;;4996582;28;20493;-67
2023/10/01 13:32:02;;;;;;;23.33;8.57;;;;;;;;;;4996586;28;20026;-67
2023/10/01 13:34:46;;;;;;;19.52;8.05;;;;;;;;;;4996118;28;20375;-68
2023/10/01 14:09:47;;;;;;;19.40;8.80;;;;;;;;;;4995496;28;20097;-68
2023/10/01 14:12:10;;;;;;;21.67;8.65;;;;;;;;;;4995449;28;20427;-68
2023/10/01 14:14:36;;;;;;;21.95;8.73;;;;;;;;;;4995512;28;20054;-68
2023/10/01 14:17:13;;;;;;;23.52;8.18;;;;;;;;;;4995480;28;20037;-68
2023/10/01 14:19:41;;;;;;;20.25;8.40;;;;;;;;;;4995676;28;20522;-68
2023/10/01 14:22:18;;;;;;;17.70;8.05;;;;;;;;;;4995387;28;20026;-68
2023/10/01 14:24:43;;;;;;;26.58;9.73;;;;;;;;;;4995593;28;20093;-68
2023/10/01 14:27:09;;;;;;;26.17;9.60;;;;;;;;;;4995541;28;20462;-68
2023/10/01 14:29:34;;;;;;;16.73;7.50;;;;;;;;;;4995247;28;20018;-68
2023/10/01 14:32:10;;;;;;;20.60;8.00;;;;;;;;;;4995479;28;20034;-68
2023/10/01 14:34:35;;;;;;;22.85;8.77;;;;;;;;;;4995506;28;20072;-68
2023/10/01 14:37:00;;;;;;;22.98;8.57;;;;;;;;;;4995276;28;20113;-68
2023/10/01 14:39:32;;;;;;;21.23;8.90;;;;;;;;;;4995326;28;20520;-67
2023/10/01 14:41:57;;;;;;;25.30;8.83;;;;;;;;;;4995309;28;20029;-68
2023/10/01 14:44:25;;;;;;;18.90;8.65;;;;;;;;;;4994938;28;20252;-68
2023/10/01 14:46:52;;;;;;;20.25;8.60;;;;;;;;;;4994110;28;20018;-68
2023/10/01 14:49:19;;;;;;;22.88;8.75;;;;;;;;;;4994910;28;20029;-68
2023/10/01 14:51:53;;;;;;;22.17;9.18;;;;;;;;;;4995116;28;20517;-68
2023/10/01 14:54:18;;;;;;;18.45;8.85;;;;;;;;;;4994963;28;20030;-68
2023/10/01 14:56:54;;;;;;;20.27;8.70;;;;;;;;;;4994952;28;20045;-68
2023/10/01 14:59:20;;;;;;;20.98;8.98;;;;;;;;;;4994919;28;20018;-68
2023/10/01 15:01:45;;;;;;;21.58;9.32;;;;;;;;;;4994890;28;20078;-68
2023/10/01 15:04:29;;;;;;;22.33;10.13;;;;;;;;;;4994600;28;20022;-68
2023/10/01 15:06:57;;;;;;;22.15;9.52;;;;;;;;;;4994810;28;20240;-68
2023/10/01 15:09:29;;;;;;;21.48;9.82;;;;;;;;;;4994397;28;20494;-68
2023/10/01 15:11:56;;;;;;;25.55;9.30;;;;;;;;;;4994482;28;20026;-68
2023/10/01 15:14:26;;;;;;;21.05;8.77;;;;;;;;;;4994664;28;20501;-68
2023/10/01 15:16:55;;;;;;;24.35;8.80;;;;;;;;;;4994570;28;20466;-68
2023/10/01 15:19:26;;;;;;;22.33;8.98;;;;;;;;;;4994312;28;20463;-68
2023/10/01 15:21:52;;;;;;;23.05;9.80;;;;;;;;;;4994321;28;20025;-68
2023/10/01 15:24:20;;;;;;;20.00;8.85;;;;;;;;;;4994546;28;20390;-68
2023/10/01 15:26:46;;;;;;;22.65;9.65;;;;;;;;;;4994212;28;20033;-68
2023/10/01 15:29:14;;;;;;;25.37;9.27;;;;;;;;;;4994448;28;20018;-68
2023/10/01 15:31:39;;;;;;;19.88;8.07;;;;;;;;;;4994394;28;20454;-68
2023/10/01 15:34:15;;;;;;;21.50;8.20;;;;;;;;;;4994187;28;20108;-68
2023/10/01 15:36:41;;;;;;;27.02;9.43;;;;;;;;;;4994246;28;20308;-68
2023/10/01 15:42:11;;;;;;;23.50;9.50;;;;;;;;;;4994366;28;20018;-68
2023/10/01 15:44:48;;;;;;;21.98;8.52;;;;;;;;;;4994259;28;20529;-68
2023/10/01 15:47:26;;;;;;;19.38;8.20;;;;;;;;;;4994291;28;20385;-68
2023/10/01 15:49:57;;;;;;;22.73;9.20;;;;;;;;;;4993953;28;20470;-68
2023/10/01 15:52:23;;;;;;;23.23;9.13;;;;;;;;;;4993994;28;20022;-68
2023/10/01 15:54:48;;;;;;;23.23;8.40;;;;;;;;;;4993834;28;20034;-68
2023/10/01 15:57:17;;;;;;;23.15;8.38;;;;;;;;;;4994175;28;20026;-68
2023/10/01 15:59:42;;;;;;;23.58;8.80;;;;;;;;;;5000381;28;20030;-68
2023/10/01 16:02:18;;;;;;;19.75;8.73;;;;;;;;;;5000420;28;20133;-67
2023/10/01 16:04:44;;;;;;;20.70;8.68;;;;;;;;;;5000458;28;20026;-68
2023/10/01 16:07:10;;;;;;;23.35;8.52;;;;;;;;;;5000524;28;20029;-67
2023/10/01 16:09:41;;;;;;;21.40;8.18;;;;;;;;;;5000113;28;20046;-68
2023/10/01 16:12:07;;;;;;;22.92;9.27;;;;;;;;;;5000378;28;20015;-68
2023/10/01 16:14:33;;;;;;;20.30;8.20;;;;;;;;;;5000671;28;20500;-68